createdAt,value
2022-11-03T00:00:25.153Z,11.07
2022-11-03T00:03:47.372Z,10.98
2022-11-03T00:07:10.067Z,9.50
2022-11-03T00:10:32.356Z,10.50
2022-11-03T00:13:54.887Z,11.43
2022-11-03T00:17:17.122Z,8.50
2022-11-03T00:20:39.396Z,7.82
2022-11-03T00:24:05.049Z,7.85
2022-11-03T00:27:27.352Z,8.60
2022-11-03T00:30:49.598Z,7.15
2022-11-03T00:34:12.414Z,7.85
2022-11-03T00:37:34.657Z,8.07
2022-11-03T00:40:59.020Z,9.50
2022-11-03T00:44:21.331Z,8.27
2022-11-03T00:48:03.540Z,9.55
2022-11-03T00:51:34.045Z,5.65
2022-11-03T00:54:56.279Z,7.13
2022-11-03T00:58:18.476Z,5.10
2022-11-03T01:01:48.004Z,8.10
2022-11-03T01:05:29.332Z,7.70
2022-11-03T01:08:51.583Z,7.82
2022-11-03T01:12:16.545Z,6.53
2022-11-03T01:15:38.723Z,8.50
2022-11-03T01:19:01.387Z,7.93
2022-11-03T01:22:24.377Z,6.28
2022-11-03T01:25:46.572Z,5.55
2022-11-03T01:29:08.951Z,7.93
2022-11-03T01:32:31.214Z,3.28
2022-11-03T01:35:53.697Z,5.65
2022-11-03T01:39:17.963Z,4.55
2022-11-03T01:42:40.167Z,3.97
2022-11-03T01:46:11.524Z,4.30
2022-11-03T01:49:36.445Z,4.65
2022-11-03T01:52:59.316Z,5.88
2022-11-03T01:56:22.572Z,2.63
2022-11-03T01:59:45.842Z,3.92
2022-11-03T02:03:10.997Z,4.30
2022-11-03T02:06:33.312Z,3.25
2022-11-03T02:09:55.564Z,4.53
2022-11-03T02:13:24.084Z,7.03
2022-11-03T02:16:58.119Z,8.30
2022-11-03T02:20:24.780Z,5.28
2022-11-03T02:23:57.129Z,10.27
2022-11-03T02:27:20.459Z,4.55
2022-11-03T02:30:57.689Z,3.90
2022-11-03T02:34:31.572Z,7.00
2022-11-03T02:37:57.661Z,7.03
2022-11-03T02:41:21.726Z,3.63
2022-11-03T02:44:46.622Z,8.27
2022-11-03T02:48:10.172Z,4.85
2022-11-03T02:51:32.414Z,2.35
2022-11-03T02:54:56.885Z,5.22
2022-11-03T02:58:55.982Z,3.95
2022-11-03T03:02:26.504Z,2.78
2022-11-03T03:05:52.753Z,4.47
2022-11-03T03:09:21.030Z,6.32
2022-11-03T03:12:52.235Z,3.70
2022-11-03T03:16:24.710Z,1.65
2022-11-03T03:20:28.358Z,4.18
2022-11-03T03:24:15.017Z,2.85
2022-11-03T03:27:41.766Z,2.97
2022-11-03T03:31:08.242Z,3.25
2022-11-03T03:34:35.354Z,8.65
2022-11-03T03:38:03.729Z,4.03
2022-11-03T03:41:28.449Z,1.77
2022-11-03T03:44:51.622Z,4.70
2022-11-03T03:48:14.032Z,1.80
2022-11-03T03:51:37.937Z,2.85
2022-11-03T03:55:00.791Z,2.85
2022-11-03T03:58:22.998Z,3.40
2022-11-03T04:01:45.385Z,1.83
2022-11-03T04:05:08.130Z,4.50
2022-11-03T04:08:30.385Z,3.70
2022-11-03T04:12:11.187Z,2.33
2022-11-03T04:15:51.752Z,3.08
2022-11-03T04:19:32.596Z,2.97
2022-11-03T04:22:54.801Z,3.05
2022-11-03T04:26:19.291Z,1.60
2022-11-03T04:29:41.566Z,4.00
2022-11-03T04:33:11.886Z,2.75
2022-11-03T04:36:34.171Z,2.17
2022-11-03T04:40:03.895Z,1.42
2022-11-03T04:43:37.382Z,2.25
2022-11-03T04:46:59.607Z,3.53
2022-11-03T04:50:24.248Z,3.53
2022-11-03T04:54:06.480Z,4.13
2022-11-03T04:57:28.816Z,2.47
2022-11-03T05:00:54.299Z,3.47
2022-11-03T05:04:19.558Z,1.42
2022-11-03T05:11:15.188Z,2.55
2022-11-03T05:14:38.059Z,2.15
2022-11-03T05:18:01.580Z,3.00
2022-11-03T05:21:26.980Z,2.88
2022-11-03T05:24:55.966Z,2.22
2022-11-03T05:28:32.064Z,2.58
2022-11-03T05:31:55.686Z,3.67
2022-11-03T05:35:23.106Z,6.50
2022-11-03T05:38:45.681Z,1.27
2022-11-03T05:42:22.980Z,6.70
2022-11-03T05:45:45.610Z,4.38
2022-11-03T05:49:10.251Z,2.25
2022-11-03T05:52:32.473Z,2.13
2022-11-03T05:55:57.165Z,3.05
2022-11-03T05:59:28.493Z,4.70
2022-11-03T06:02:50.842Z,2.72
2022-11-03T06:06:19.748Z,2.33
2022-11-03T06:09:42.197Z,1.75
2022-11-03T06:13:11.497Z,2.78
2022-11-03T06:16:44.212Z,1.25
2022-11-03T06:20:16.197Z,3.70
2022-11-03T06:23:40.349Z,1.88
2022-11-03T06:27:02.786Z,2.35
2022-11-03T06:30:29.032Z,3.03
2022-11-03T06:33:52.936Z,4.45
2022-11-03T06:37:27.667Z,3.25
2022-11-03T06:40:51.998Z,4.78
2022-11-03T06:44:29.174Z,3.87
2022-11-03T06:47:53.255Z,2.63
2022-11-03T06:51:23.938Z,2.47
2022-11-03T06:54:49.740Z,5.95
2022-11-03T06:58:24.101Z,15.35
2022-11-03T07:01:50.227Z,2.95
2022-11-03T07:05:24.523Z,8.68
2022-11-03T07:08:52.655Z,2.58
2022-11-03T07:12:18.505Z,4.63
2022-11-03T07:15:43.377Z,2.38
2022-11-03T07:19:16.384Z,4.30
2022-11-03T07:22:38.668Z,3.95
2022-11-03T07:26:02.155Z,3.33
2022-11-03T07:29:27.355Z,4.85
2022-11-03T07:36:21.296Z,4.28
2022-11-03T07:39:43.614Z,5.13
2022-11-03T07:43:36.680Z,3.03
2022-11-03T07:46:58.948Z,1.55
2022-11-03T07:50:22.404Z,7.45
2022-11-03T07:53:47.584Z,5.65
2022-11-03T08:00:41.833Z,4.05
2022-11-03T08:04:06.714Z,4.18
2022-11-03T08:07:29.505Z,3.28
2022-11-03T08:10:51.736Z,1.60
2022-11-03T08:14:14.156Z,3.58
2022-11-03T08:17:36.359Z,5.20
2022-11-03T08:20:58.584Z,3.58
2022-11-03T08:24:20.760Z,3.67
2022-11-03T08:27:42.981Z,9.55
2022-11-03T08:31:09.492Z,0.93
2022-11-03T08:34:34.673Z,4.03
2022-11-03T08:37:56.961Z,2.90
2022-11-03T08:41:19.446Z,2.50
2022-11-03T08:44:41.690Z,2.35
2022-11-03T08:48:04.343Z,1.33
2022-11-03T08:51:26.766Z,2.85
2022-11-03T08:54:49.266Z,1.55
2022-11-03T08:58:11.623Z,0.95
2022-11-03T09:01:33.878Z,2.28
2022-11-03T09:04:56.102Z,1.27
2022-11-03T09:12:00.575Z,3.33
2022-11-03T09:15:23.037Z,3.00
2022-11-03T09:18:45.618Z,1.73
2022-11-03T09:22:07.961Z,4.47
2022-11-03T09:25:30.166Z,2.80
2022-11-03T09:28:52.460Z,2.30
2022-11-03T09:32:17.651Z,1.33
2022-11-03T09:35:44.192Z,3.30
2022-11-03T09:39:06.486Z,7.03
2022-11-03T09:42:28.985Z,0.80
2022-11-03T09:45:51.400Z,2.63
2022-11-03T09:49:15.858Z,0.88
2022-11-03T09:52:38.114Z,1.08
2022-11-03T09:56:00.426Z,0.90
2022-11-03T09:59:23.758Z,0.98
2022-11-03T10:02:46.815Z,2.50
2022-11-03T10:06:12.445Z,1.48
2022-11-03T10:09:39.648Z,0.70
2022-11-03T10:13:02.307Z,1.55
2022-11-03T10:16:26.342Z,0.95
2022-11-03T10:19:51.559Z,1.00
2022-11-03T10:26:50.708Z,1.02
2022-11-03T10:30:13.286Z,0.50
2022-11-03T10:33:42.459Z,1.20
2022-11-03T10:37:25.180Z,2.72
2022-11-03T10:40:48.520Z,1.08
2022-11-03T10:44:19.612Z,2.17
2022-11-03T10:47:41.832Z,0.95
2022-11-03T10:51:06.230Z,3.60
2022-11-03T10:54:36.261Z,2.10
2022-11-03T10:57:58.861Z,1.00
2022-11-03T11:01:21.476Z,1.13
2022-11-03T11:04:44.005Z,0.80
2022-11-03T11:08:06.467Z,0.57
2022-11-03T11:11:29.239Z,0.80
2022-11-03T11:14:59.970Z,2.88
2022-11-03T11:18:27.917Z,0.80
2022-11-03T11:21:54.470Z,0.75
2022-11-03T11:25:19.040Z,2.45
2022-11-03T11:29:11.012Z,2.53
2022-11-03T11:32:42.175Z,433.50
2022-11-03T11:36:19.308Z,331.60
2022-11-03T11:39:44.205Z,341.90
2022-11-03T11:43:06.909Z,323.50
2022-11-03T11:46:40.044Z,304.30
2022-11-03T11:50:11.431Z,304.02
2022-11-03T11:53:39.194Z,303.35
2022-11-03T11:57:01.509Z,295.75
2022-11-03T12:00:30.381Z,274.17
2022-11-03T12:03:55.132Z,251.82
2022-11-03T12:07:17.463Z,247.93
2022-11-03T12:10:52.624Z,240.45
2022-11-03T12:14:33.884Z,210.43
2022-11-03T12:17:56.239Z,188.48
2022-11-03T12:21:50.069Z,211.18
2022-11-03T12:25:36.309Z,199.48
2022-11-03T12:28:58.537Z,179.85
2022-11-03T12:32:33.049Z,160.15
2022-11-03T12:35:57.172Z,158.90
2022-11-03T12:39:19.369Z,153.35
2022-11-03T12:42:41.626Z,129.50
2022-11-03T12:46:05.334Z,125.20
2022-11-03T12:49:27.758Z,143.73
2022-11-03T12:52:49.923Z,132.40
2022-11-03T12:56:13.670Z,129.27
2022-11-03T12:59:35.979Z,113.25
2022-11-03T13:02:58.369Z,114.43
2022-11-03T13:06:20.611Z,116.22
2022-11-03T13:09:43.488Z,118.20
2022-11-03T13:13:06.017Z,105.40
2022-11-03T13:16:28.435Z,102.03
2022-11-03T13:19:54.531Z,104.88
2022-11-03T13:23:20.274Z,93.68
2022-11-03T13:26:45.361Z,80.55
2022-11-03T13:30:08.851Z,81.38
2022-11-03T13:33:31.152Z,72.40
2022-11-03T13:36:53.406Z,72.70
2022-11-03T13:40:42.707Z,69.25
2022-11-03T13:43:58.507Z,63.83
2022-11-03T13:47:34.609Z,68.82
2022-11-03T13:51:04.133Z,62.25
2022-11-03T14:05:32.976Z,48.47
2022-11-03T14:08:55.284Z,45.15
2022-11-03T14:12:32.617Z,41.35
2022-11-03T14:15:56.588Z,42.38
2022-11-03T14:19:21.508Z,40.30
2022-11-03T14:22:43.774Z,40.58
2022-11-03T14:26:21.401Z,35.08
2022-11-03T14:29:49.957Z,38.13
2022-11-03T14:33:12.587Z,30.10
2022-11-03T14:36:35.276Z,34.47
2022-11-03T14:39:57.481Z,28.60
2022-11-03T14:43:19.741Z,27.85
2022-11-03T14:46:42.012Z,25.77
2022-11-03T14:50:04.587Z,27.30
2022-11-03T14:53:28.226Z,26.48
2022-11-03T14:56:50.632Z,20.52
2022-11-03T15:00:13.192Z,19.42
2022-11-03T15:03:35.465Z,18.67
2022-11-03T15:06:57.693Z,22.08
2022-11-03T15:10:19.934Z,17.08
2022-11-03T15:13:46.040Z,21.80
2022-11-03T15:17:11.122Z,15.27
2022-11-03T15:20:35.606Z,13.38
2022-11-03T15:27:40.784Z,16.77
2022-11-03T15:31:03.030Z,17.77
2022-11-03T15:34:25.265Z,16.48
2022-11-03T15:37:47.613Z,11.63
2022-11-03T15:41:15.879Z,12.93
2022-11-03T15:44:38.132Z,11.40
2022-11-03T15:48:00.890Z,9.95
2022-11-03T15:51:23.235Z,15.38
2022-11-03T15:54:45.828Z,12.90
2022-11-03T15:58:08.212Z,10.30
2022-11-03T16:01:30.876Z,11.07
2022-11-03T16:04:53.191Z,9.55
2022-11-03T16:08:15.687Z,7.97
2022-11-03T16:11:37.916Z,10.38
2022-11-03T16:15:00.085Z,10.13
2022-11-03T16:18:22.374Z,8.05
2022-11-03T16:21:44.606Z,14.85
2022-11-03T16:25:12.131Z,9.05
2022-11-03T16:28:36.561Z,7.03
2022-11-03T16:31:59.174Z,6.13
2022-11-03T16:35:22.237Z,7.78
2022-11-03T16:38:44.868Z,6.32
2022-11-03T16:42:07.253Z,9.98
2022-11-03T16:45:32.392Z,7.13
2022-11-03T16:52:21.852Z,11.23
2022-11-03T16:55:46.184Z,7.53
2022-11-03T16:59:08.367Z,5.60
2022-11-03T17:02:31.010Z,6.05
2022-11-03T17:05:53.309Z,6.93
2022-11-03T17:09:15.514Z,4.90
2022-11-03T17:12:37.850Z,8.45
2022-11-03T17:16:00.042Z,6.45
2022-11-03T17:19:22.324Z,7.57
2022-11-03T17:22:44.561Z,5.55
2022-11-03T17:26:07.023Z,5.30
2022-11-03T17:29:46.287Z,5.45
2022-11-03T17:33:13.079Z,5.53
2022-11-03T17:36:35.392Z,4.32
2022-11-03T17:39:57.832Z,3.95
2022-11-03T17:43:23.750Z,6.05
2022-11-03T17:46:45.985Z,5.88
2022-11-03T17:50:23.972Z,5.70
2022-11-03T17:53:46.614Z,4.95
2022-11-03T17:57:15.882Z,3.25
2022-11-03T18:00:38.112Z,4.50
2022-11-03T18:04:02.726Z,4.72
2022-11-03T18:07:27.428Z,6.25
2022-11-03T18:10:51.783Z,4.50
2022-11-03T18:14:14.266Z,4.53
2022-11-03T18:17:36.910Z,7.63
2022-11-03T18:20:59.506Z,5.07
2022-11-03T18:24:21.854Z,4.65
2022-11-03T18:27:44.683Z,5.70
2022-11-03T18:31:41.422Z,4.28
2022-11-03T18:35:04.221Z,7.60
2022-11-03T18:38:26.645Z,3.42
2022-11-03T18:41:48.899Z,7.13
2022-11-03T18:45:13.354Z,10.65
2022-11-03T18:48:35.516Z,4.68
2022-11-03T18:52:10.469Z,5.40
2022-11-03T18:55:33.072Z,8.55
2022-11-03T18:58:57.268Z,5.13
2022-11-03T19:02:22.757Z,3.73
2022-11-03T19:05:47.855Z,7.95
2022-11-03T19:09:13.939Z,2.63
2022-11-03T19:12:39.118Z,3.13
2022-11-03T19:16:05.221Z,4.50
2022-11-03T19:19:28.046Z,5.05
2022-11-03T19:22:50.256Z,4.85
2022-11-03T19:26:34.765Z,4.20
2022-11-03T19:29:58.912Z,3.25
2022-11-03T19:33:24.730Z,4.95
2022-11-03T19:36:48.411Z,19.15
2022-11-03T19:40:16.780Z,3.13
2022-11-03T19:43:38.994Z,6.15
2022-11-03T19:47:01.314Z,2.05
2022-11-03T19:50:31.444Z,3.22
2022-11-03T19:53:53.696Z,4.60
2022-11-03T19:57:17.440Z,7.15
2022-11-03T20:00:39.957Z,7.85
2022-11-03T20:04:02.232Z,6.93
2022-11-03T20:07:31.078Z,6.65
2022-11-03T20:10:53.965Z,7.00
2022-11-03T20:14:21.037Z,6.70
2022-11-03T20:17:44.858Z,1.98
2022-11-03T20:21:11.068Z,5.55
2022-11-03T20:24:33.518Z,5.25
2022-11-03T20:27:57.721Z,9.80
2022-11-03T20:31:20.282Z,6.03
2022-11-03T20:34:42.589Z,2.22
2022-11-03T20:38:04.978Z,4.13
2022-11-03T20:41:29.379Z,5.13
2022-11-03T20:44:52.007Z,4.72
2022-11-03T20:48:14.344Z,5.20
2022-11-03T20:51:43.643Z,3.00
2022-11-03T20:55:16.359Z,3.10
2022-11-03T20:58:38.635Z,3.10
2022-11-03T21:02:01.028Z,4.53
2022-11-03T21:05:26.001Z,5.22
2022-11-03T21:08:48.455Z,4.45
2022-11-03T21:12:13.322Z,4.55
2022-11-03T21:16:22.707Z,6.43
2022-11-03T21:19:55.344Z,11.52
2022-11-03T21:23:26.162Z,5.00
2022-11-03T21:26:48.371Z,5.32
2022-11-03T21:30:15.249Z,4.15
2022-11-03T21:33:37.473Z,3.28
2022-11-03T21:36:59.847Z,3.78
2022-11-03T21:40:22.127Z,2.88
2022-11-03T21:44:02.947Z,2.53
2022-11-03T21:47:25.840Z,2.85
2022-11-03T21:50:48.079Z,3.08
2022-11-03T21:54:10.354Z,3.45
2022-11-03T21:57:32.671Z,5.60
2022-11-03T22:00:54.891Z,4.40
2022-11-03T22:04:17.122Z,4.00
2022-11-03T22:07:39.363Z,3.80
2022-11-03T22:11:21.254Z,6.82
2022-11-03T22:15:01.875Z,2.83
2022-11-03T22:18:24.147Z,4.45
2022-11-03T22:22:24.940Z,3.05
2022-11-03T22:26:05.953Z,7.55
2022-11-03T22:29:54.614Z,4.05
2022-11-03T22:33:18.183Z,2.40
2022-11-03T22:36:40.424Z,5.10
2022-11-03T22:40:21.253Z,4.03
2022-11-03T22:44:02.146Z,7.47
2022-11-03T22:47:26.393Z,2.35
2022-11-03T22:50:54.736Z,2.53
2022-11-03T22:54:17.064Z,7.03
2022-11-03T22:57:39.259Z,5.45
2022-11-03T23:01:06.712Z,5.05
2022-11-03T23:04:29.015Z,3.67
2022-11-03T23:07:51.253Z,3.95
2022-11-03T23:11:21.839Z,2.00
2022-11-03T23:15:02.704Z,2.63
2022-11-03T23:18:43.662Z,2.08
2022-11-03T23:22:06.624Z,2.60
2022-11-03T23:25:29.233Z,2.42
2022-11-03T23:28:51.784Z,2.67
2022-11-03T23:32:13.969Z,3.63
2022-11-03T23:35:40.230Z,5.28
2022-11-03T23:39:03.534Z,2.85
2022-11-03T23:42:25.764Z,3.88
2022-11-03T23:46:06.578Z,2.70
2022-11-03T23:49:29.461Z,3.92
2022-11-03T23:52:52.104Z,2.92
2022-11-03T23:56:34.928Z,3.78
2022-11-03T23:59:57.110Z,3.53
